Time;durP1;ratioP1;P1;durP2;ratioP2;P2;SDS_P1;SDS_P2;PMS_P1;PMS_P2;Temp;Humidity;BMP_temperature;BMP_pressure;BME280_temperature;BME280_humidity;BME280_pressure;Samples;Min_cycle;Max_cycle;Signal;HPM_P1;HPM_P2
2023/12/11 00:01:19;;;;;;;56.28;16.27;;;7.20;99.90;;;;;;4990452;28;20026;-72
2023/12/11 00:03:45;;;;;;;51.85;15.23;;;7.20;99.90;;;;;;4990684;28;20031;-70
2023/12/11 00:06:10;;;;;;;62.40;17.85;;;7.30;99.90;;;;;;4991106;28;20034;-72
2023/12/11 00:08:36;;;;;;;63.38;18.60;;;7.30;99.90;;;;;;4991491;28;20527;-71
2023/12/11 00:11:02;;;;;;;56.00;17.85;;;7.30;99.90;;;;;;4991735;28;20067;-70
2023/12/11 00:13:28;;;;;;;51.58;17.50;;;7.30;99.90;;;;;;4990258;28;20555;-72
2023/12/11 00:15:53;;;;;;;60.00;18.23;;;7.40;99.90;;;;;;4990475;28;20042;-71
2023/12/11 00:18:19;;;;;;;68.97;18.73;;;7.40;99.90;;;;;;4994525;28;20031;-72
2023/12/11 00:20:45;;;;;;;52.97;16.55;;;7.50;99.90;;;;;;4995302;28;20038;-70
2023/12/11 00:23:10;;;;;;;57.75;18.05;;;7.50;99.90;;;;;;4993794;28;20025;-72
2023/12/11 00:25:37;;;;;;;59.72;19.10;;;7.60;99.90;;;;;;4994847;28;20067;-71
2023/12/11 00:28:02;;;;;;;51.20;17.23;;;7.70;99.90;;;;;;4995203;28;20022;-71
2023/12/11 00:30:28;;;;;;;50.95;14.70;;;7.70;99.90;;;;;;4993486;28;20134;-71
2023/12/11 00:32:54;;;;;;;60.60;18.05;;;7.80;99.90;;;;;;4995188;28;20022;-68
2023/12/11 00:35:19;;;;;;;63.83;17.67;;;7.90;99.90;;;;;;4993463;28;20030;-69
2023/12/11 00:37:45;;;;;;;50.42;16.77;;;7.90;99.90;;;;;;4995284;28;20030;-70
2023/12/11 00:40:11;;;;;;;48.45;15.80;;;8.00;99.90;;;;;;4995073;28;20019;-69
2023/12/11 00:42:36;;;;;;;47.78;15.05;;;8.00;99.90;;;;;;4994819;28;20027;-68
2023/12/11 00:45:02;;;;;;;42.15;14.43;;;8.00;99.90;;;;;;4991725;28;20026;-72
2023/12/11 00:47:28;;;;;;;39.30;14.30;;;8.10;99.90;;;;;;4993913;28;20042;-69
2023/12/11 00:49:53;;;;;;;37.97;11.93;;;8.10;99.90;;;;;;4994846;28;20518;-71
2023/12/11 00:52:19;;;;;;;42.13;13.75;;;8.10;99.90;;;;;;4994079;28;20031;-74
2023/12/11 00:54:45;;;;;;;37.22;13.48;;;8.20;99.90;;;;;;4994915;28;20054;-72
2023/12/11 00:57:11;;;;;;;40.03;12.77;;;8.20;99.90;;;;;;4994588;28;20026;-70
2023/12/11 00:59:38;;;;;;;40.60;12.45;;;8.20;99.90;;;;;;4994529;28;20042;-68
2023/12/11 01:02:04;;;;;;;47.72;13.18;;;8.30;99.90;;;;;;4994404;28;20044;-70
2023/12/11 01:04:29;;;;;;;45.17;12.25;;;8.30;99.90;;;;;;5009570;28;20034;-73
2023/12/11 01:06:55;;;;;;;36.08;11.65;;;8.30;99.90;;;;;;4994555;28;20030;-69
2023/12/11 01:09:21;;;;;;;36.88;10.95;;;8.40;99.90;;;;;;4994299;28;20069;-70
2023/12/11 01:11:46;;;;;;;38.67;9.52;;;8.40;99.90;;;;;;4994505;28;20023;-71
2023/12/11 01:14:12;;;;;;;36.63;10.50;;;8.40;99.90;;;;;;4994026;28;20023;-71
2023/12/11 01:16:37;;;;;;;39.53;9.68;;;8.40;99.90;;;;;;4992954;28;20019;-70
2023/12/11 01:19:03;;;;;;;44.10;10.20;;;8.50;99.90;;;;;;4994382;28;20900;-71
2023/12/11 01:21:28;;;;;;;31.35;8.55;;;8.50;99.90;;;;;;4994127;28;20369;-70
2023/12/11 01:23:54;;;;;;;32.85;8.73;;;8.50;99.90;;;;;;4994406;28;20503;-69
2023/12/11 01:26:19;;;;;;;51.50;8.73;;;8.50;99.90;;;;;;4993695;28;20055;-70
2023/12/11 01:28:45;;;;;;;37.85;9.05;;;8.50;99.90;;;;;;4993321;28;20403;-69
2023/12/11 01:31:10;;;;;;;45.50;8.75;;;8.50;99.90;;;;;;4994326;28;20031;-69
2023/12/11 01:33:36;;;;;;;43.95;8.60;;;8.60;99.90;;;;;;4993974;28;20078;-71
2023/12/11 01:36:02;;;;;;;43.53;8.68;;;8.60;99.90;;;;;;4993977;28;20054;-68
2023/12/11 01:38:27;;;;;;;39.90;7.85;;;8.60;99.90;;;;;;4993837;28;20027;-70
2023/12/11 01:40:53;;;;;;;48.10;8.40;;;8.60;99.90;;;;;;4992853;28;20025;-69
2023/12/11 01:43:20;;;;;;;40.22;8.15;;;8.60;99.90;;;;;;5007356;28;20038;-71
2023/12/11 01:45:57;;;;;;;41.40;7.90;;;8.60;99.90;;;;;;4993366;28;20487;-71
2023/12/11 01:48:22;;;;;;;45.40;7.05;;;8.60;99.90;;;;;;4991570;28;20037;-70
2023/12/11 01:50:48;;;;;;;49.63;7.25;;;8.60;99.90;;;;;;4992940;28;20022;-71
2023/12/11 01:53:14;;;;;;;45.72;6.40;;;8.60;99.90;;;;;;4990098;28;20035;-68
2023/12/11 01:55:40;;;;;;;39.65;7.40;;;8.60;99.90;;;;;;4990690;28;20069;-69
2023/12/11 01:58:07;;;;;;;63.15;8.13;;;8.60;99.90;;;;;;4990542;28;20054;-72
2023/12/11 02:00:32;;;;;;;45.88;7.25;;;8.60;99.90;;;;;;4991880;28;20034;-71
2023/12/11 02:02:58;;;;;;;43.42;6.97;;;8.70;99.90;;;;;;4991257;28;20026;-73
2023/12/11 02:05:24;;;;;;;51.88;6.60;;;8.60;99.90;;;;;;4992971;28;20547;-73
2023/12/11 02:07:49;;;;;;;43.97;6.75;;;8.60;99.90;;;;;;4992595;28;20022;-71
2023/12/11 02:10:15;;;;;;;67.72;8.43;;;8.60;99.90;;;;;;4990826;28;20533;-72
2023/12/11 02:12:42;;;;;;;51.17;7.50;;;8.60;99.90;;;;;;5007080;28;20031;-71
2023/12/11 02:15:08;;;;;;;70.47;7.68;;;8.70;99.90;;;;;;4991397;28;20029;-72
2023/12/11 02:17:34;;;;;;;51.50;7.28;;;8.60;99.90;;;;;;4991266;28;20038;-70
2023/12/11 02:19:59;;;;;;;54.60;7.43;;;8.60;99.90;;;;;;4992751;28;20022;-72
2023/12/11 02:22:25;;;;;;;59.47;7.10;;;8.60;99.90;;;;;;4992431;28;20073;-68
2023/12/11 02:24:58;;;;;;;57.03;7.70;;;8.60;99.90;;;;;;4992203;28;20053;-72
2023/12/11 02:27:25;;;;;;;63.50;8.05;;;8.60;99.90;;;;;;4991668;28;20030;-71
2023/12/11 02:29:53;;;;;;;72.68;7.60;;;8.60;99.90;;;;;;4992275;28;20030;-69
2023/12/11 02:32:19;;;;;;;68.05;9.15;;;8.50;99.90;;;;;;4992127;28;20089;-70
2023/12/11 02:34:47;;;;;;;73.07;8.50;;;8.50;99.90;;;;;;4992188;28;20057;-68
2023/12/11 02:37:16;;;;;;;75.43;9.45;;;8.50;99.90;;;;;;4992110;28;20121;-69
2023/12/11 02:39:41;;;;;;;64.68;7.88;;;8.50;99.90;;;;;;4990678;28;20030;-69
2023/12/11 02:42:07;;;;;;;78.20;9.27;;;8.50;99.90;;;;;;4990608;28;20022;-70
2023/12/11 02:44:32;;;;;;;67.80;7.68;;;8.60;99.90;;;;;;4991926;28;20027;-71
2023/12/11 02:46:58;;;;;;;91.22;9.93;;;8.60;99.90;;;;;;4992586;28;20056;-71
2023/12/11 02:49:23;;;;;;;73.65;8.52;;;8.60;99.90;;;;;;4991042;28;20027;-71
2023/12/11 02:51:49;;;;;;;75.47;9.05;;;8.60;99.90;;;;;;4991605;28;20033;-71
2023/12/11 02:54:14;;;;;;;74.30;9.15;;;8.60;99.90;;;;;;4991918;28;20030;-70
2023/12/11 02:56:40;;;;;;;70.78;9.52;;;8.60;99.90;;;;;;4991728;28;20053;-70
2023/12/11 02:59:06;;;;;;;74.72;8.32;;;8.60;99.90;;;;;;4991881;28;20045;-72
2023/12/11 03:01:32;;;;;;;66.90;8.98;;;8.60;99.90;;;;;;4991409;28;20452;-70
2023/12/11 03:03:57;;;;;;;66.53;8.20;;;8.60;99.90;;;;;;4991998;28;20037;-71
2023/12/11 03:06:23;;;;;;;60.78;7.65;;;8.60;99.90;;;;;;4991506;28;20034;-71
2023/12/11 03:08:48;;;;;;;72.15;8.02;;;8.60;99.90;;;;;;4990278;28;20126;-69
2023/12/11 03:11:14;;;;;;;59.83;8.07;;;8.60;99.90;;;;;;4991570;28;20030;-70
2023/12/11 03:13:39;;;;;;;61.03;8.55;;;8.60;99.90;;;;;;4990287;28;20051;-71
2023/12/11 03:16:05;;;;;;;72.45;8.88;;;8.60;99.90;;;;;;4991492;28;20031;-71
2023/12/11 03:18:31;;;;;;;71.20;8.60;;;8.60;99.90;;;;;;4991111;28;20026;-72
2023/12/11 03:20:56;;;;;;;60.78;9.75;;;8.60;99.90;;;;;;4990345;28;20035;-69
2023/12/11 03:23:22;;;;;;;63.80;8.50;;;8.70;99.90;;;;;;4991104;28;20034;-71
2023/12/11 03:25:47;;;;;;;74.90;9.45;;;8.60;99.90;;;;;;4991197;28;20047;-69
2023/12/11 03:28:13;;;;;;;65.93;8.20;;;8.70;99.90;;;;;;4991032;28;20030;-69
2023/12/11 03:30:38;;;;;;;65.75;8.20;;;8.60;99.90;;;;;;4991445;28;20053;-73
2023/12/11 03:33:04;;;;;;;77.40;9.55;;;8.60;99.90;;;;;;4991249;28;20050;-71
2023/12/11 03:35:30;;;;;;;64.43;9.70;;;8.60;99.90;;;;;;4991047;28;20042;-72
2023/12/11 03:37:55;;;;;;;68.30;9.10;;;8.60;99.90;;;;;;4989885;28;20058;-71
2023/12/11 03:40:21;;;;;;;60.30;8.35;;;8.70;99.90;;;;;;4991156;28;20033;-70
2023/12/11 03:42:46;;;;;;;66.72;8.80;;;8.60;99.90;;;;;;4991468;28;20066;-69
2023/12/11 03:45:12;;;;;;;58.08;9.00;;;8.70;99.90;;;;;;4991201;28;20468;-70
2023/12/11 03:47:37;;;;;;;76.50;10.57;;;8.70;99.90;;;;;;4990792;28;20034;-70
2023/12/11 03:50:03;;;;;;;73.20;10.00;;;8.70;99.90;;;;;;4991292;28;20045;-71
2023/12/11 03:52:29;;;;;;;57.13;9.25;;;8.70;99.90;;;;;;4993465;28;20838;-69
2023/12/11 03:54:55;;;;;;;69.85;9.20;;;8.70;99.90;;;;;;4994776;28;20049;-69
2023/12/11 03:57:20;;;;;;;66.80;8.98;;;8.70;99.90;;;;;;4994732;28;20026;-69
2023/12/11 03:59:46;;;;;;;53.90;8.52;;;8.70;99.90;;;;;;4994576;28;20022;-72
2023/12/11 04:02:11;;;;;;;74.57;10.02;;;8.70;99.90;;;;;;4995014;28;20082;-70
2023/12/11 04:04:37;;;;;;;64.65;9.23;;;8.70;99.90;;;;;;4993528;28;20030;-70
2023/12/11 04:07:03;;;;;;;67.18;8.93;;;8.70;99.90;;;;;;4994608;28;20034;-68
2023/12/11 04:09:28;;;;;;;71.72;9.30;;;8.70;99.90;;;;;;4994393;28;20034;-71
2023/12/11 04:11:54;;;;;;;60.78;8.88;;;8.70;99.90;;;;;;4994273;28;20027;-71
2023/12/11 04:14:19;;;;;;;59.20;8.70;;;8.70;99.90;;;;;;4994833;28;20078;-69
2023/12/11 04:16:45;;;;;;;62.85;8.18;;;8.70;99.90;;;;;;4994589;28;20055;-69
2023/12/11 04:19:14;;;;;;;64.63;9.30;;;8.70;99.90;;;;;;4994284;28;20044;-69
2023/12/11 04:21:40;;;;;;;58.72;9.02;;;8.70;99.90;;;;;;4994582;28;20062;-73
2023/12/11 04:24:06;;;;;;;51.67;8.82;;;8.70;99.90;;;;;;4994985;28;20037;-69
2023/12/11 04:26:32;;;;;;;57.42;8.35;;;8.70;99.90;;;;;;4994475;28;20070;-70
2023/12/11 04:28:57;;;;;;;63.78;8.98;;;8.70;99.90;;;;;;4994014;28;20066;-69
2023/12/11 04:31:23;;;;;;;70.85;8.52;;;8.70;99.90;;;;;;4994216;28;20038;-71
2023/12/11 04:33:50;;;;;;;64.18;8.95;;;8.70;99.90;;;;;;4994268;28;20038;-69
2023/12/11 04:36:15;;;;;;;72.65;8.00;;;8.70;99.90;;;;;;4994796;28;20034;-68
2023/12/11 04:38:41;;;;;;;64.45;7.97;;;8.70;99.90;;;;;;4993950;28;20033;-71
2023/12/11 04:41:06;;;;;;;59.58;8.48;;;8.70;99.90;;;;;;4994563;28;20365;-70
2023/12/11 04:43:33;;;;;;;65.18;11.77;;;8.70;99.90;;;;;;4994324;28;20057;-71
2023/12/11 04:45:59;;;;;;;73.35;10.05;;;8.70;99.90;;;;;;4993731;28;20019;-72
2023/12/11 04:48:25;;;;;;;74.82;12.40;;;8.70;99.90;;;;;;4993962;28;20053;-71
2023/12/11 04:50:50;;;;;;;74.32;11.05;;;8.70;99.90;;;;;;4992763;28;20070;-69
2023/12/11 04:53:16;;;;;;;72.03;8.93;;;8.70;99.90;;;;;;4994542;28;20488;-70
2023/12/11 04:55:41;;;;;;;66.15;8.43;;;8.70;99.90;;;;;;4994800;28;20036;-67
2023/12/11 04:58:07;;;;;;;65.80;8.32;;;8.70;99.90;;;;;;4994661;28;20030;-67
2023/12/11 05:00:32;;;;;;;66.38;8.88;;;8.70;99.90;;;;;;4994824;28;20084;-71
2023/12/11 05:02:58;;;;;;;72.95;8.85;;;8.70;99.90;;;;;;4993723;28;20124;-69
2023/12/11 05:05:23;;;;;;;71.97;8.50;;;8.70;99.90;;;;;;4994740;28;20037;-71
2023/12/11 05:07:49;;;;;;;71.05;8.20;;;8.70;99.90;;;;;;4994445;28;20030;-70
2023/12/11 05:10:15;;;;;;;82.57;9.38;;;8.70;99.90;;;;;;5009552;28;20035;-70
2023/12/11 05:12:42;;;;;;;59.85;8.50;;;8.70;99.90;;;;;;4994526;28;20061;-69
2023/12/11 05:15:08;;;;;;;70.40;8.57;;;8.70;99.90;;;;;;4994284;28;20037;-70
2023/12/11 05:17:34;;;;;;;59.22;8.63;;;8.70;99.90;;;;;;4994543;28;20022;-73
2023/12/11 05:19:59;;;;;;;73.03;8.93;;;8.70;99.90;;;;;;4994539;28;20023;-68
2023/12/11 05:22:25;;;;;;;60.33;9.23;;;8.70;99.90;;;;;;4993116;28;20035;-68
2023/12/11 05:24:51;;;;;;;62.53;9.60;;;8.70;99.90;;;;;;4992345;28;20113;-71
2023/12/11 05:27:16;;;;;;;73.53;9.63;;;8.70;99.90;;;;;;4994285;28;20054;-68
2023/12/11 05:29:42;;;;;;;60.60;9.27;;;8.60;99.90;;;;;;4992959;28;20042;-69
2023/12/11 05:32:10;;;;;;;55.25;8.57;;;8.60;99.90;;;;;;4993948;28;20105;-67
2023/12/11 05:34:35;;;;;;;62.85;9.27;;;8.60;99.90;;;;;;4994262;28;20019;-67
2023/12/11 05:37:01;;;;;;;57.53;8.98;;;8.60;99.90;;;;;;4993938;28;20061;-69
2023/12/11 05:39:27;;;;;;;61.17;10.23;;;8.60;99.90;;;;;;4992760;28;20023;-67
2023/12/11 05:41:52;;;;;;;66.38;9.95;;;8.60;99.90;;;;;;4993868;28;20490;-67
2023/12/11 05:44:18;;;;;;;51.70;8.63;;;8.70;99.90;;;;;;4993811;28;20027;-69
2023/12/11 05:46:43;;;;;;;64.38;9.75;;;8.70;99.90;;;;;;4993849;28;20023;-71
2023/12/11 05:49:10;;;;;;;74.35;10.52;;;8.70;99.90;;;;;;4993576;28;20081;-71
2023/12/11 05:51:35;;;;;;;82.28;10.77;;;8.70;99.90;;;;;;4992794;28;20042;-67
2023/12/11 05:54:01;;;;;;;81.47;10.73;;;8.70;99.90;;;;;;4993898;28;20042;-71
2023/12/11 05:56:27;;;;;;;83.32;12.20;;;8.70;99.90;;;;;;5008681;28;20069;-68
2023/12/11 05:58:53;;;;;;;81.03;12.48;;;8.70;99.90;;;;;;4993854;28;20027;-66
2023/12/11 06:01:19;;;;;;;84.15;13.77;;;8.60;99.90;;;;;;4993562;28;20019;-69
2023/12/11 06:03:45;;;;;;;97.03;14.27;;;8.60;99.90;;;;;;4993138;28;20053;-69
2023/12/11 06:06:15;;;;;;;85.80;12.88;;;8.60;99.90;;;;;;4993790;28;20030;-70
2023/12/11 06:08:41;;;;;;;82.82;12.32;;;8.60;99.90;;;;;;4993382;28;20035;-69
2023/12/11 06:11:07;;;;;;;102.32;13.60;;;8.60;99.90;;;;;;4993379;28;20480;-70
2023/12/11 06:13:32;;;;;;;80.70;12.48;;;8.50;99.90;;;;;;4993360;28;20110;-71
2023/12/11 06:15:58;;;;;;;69.20;12.35;;;8.50;99.90;;;;;;4992643;28;20022;-71
2023/12/11 06:18:23;;;;;;;64.35;10.95;;;8.50;99.90;;;;;;5007772;28;20037;-70
2023/12/11 06:20:49;;;;;;;63.47;11.18;;;8.60;99.90;;;;;;4989749;28;20030;-72
2023/12/11 06:23:15;;;;;;;65.18;10.20;;;8.60;99.90;;;;;;4992118;28;20048;-70
2023/12/11 06:25:40;;;;;;;60.65;10.73;;;8.60;99.90;;;;;;4993024;28;20054;-72
2023/12/11 06:28:06;;;;;;;60.80;11.60;;;8.60;99.90;;;;;;4992628;28;20080;-69
2023/12/11 06:30:31;;;;;;;52.10;9.60;;;8.50;99.90;;;;;;4992111;28;20047;-69
2023/12/11 06:32:57;;;;;;;56.85;10.27;;;8.60;99.90;;;;;;4991712;28;20034;-70
2023/12/11 06:35:22;;;;;;;57.95;9.85;;;8.50;99.90;;;;;;4990473;28;20042;-69
2023/12/11 06:37:48;;;;;;;50.65;10.40;;;8.60;99.90;;;;;;4991722;28;20057;-72
2023/12/11 06:40:14;;;;;;;53.40;9.43;;;8.60;99.90;;;;;;4990399;28;20045;-69
2023/12/11 06:42:39;;;;;;;63.30;10.90;;;8.60;99.90;;;;;;4992641;28;20030;-71
2023/12/11 06:45:10;;;;;;;52.03;9.68;;;8.60;99.90;;;;;;4991484;28;20027;-69
2023/12/11 06:47:36;;;;;;;56.10;11.00;;;8.60;99.90;;;;;;4989566;28;20022;-70
2023/12/11 06:50:03;;;;;;;52.67;10.85;;;8.60;99.90;;;;;;4990155;28;20053;-71
2023/12/11 06:52:28;;;;;;;68.13;11.63;;;8.60;99.90;;;;;;4991485;28;20129;-70
2023/12/11 06:54:54;;;;;;;68.32;10.95;;;8.60;99.90;;;;;;4991218;28;20077;-69
2023/12/11 06:57:20;;;;;;;66.03;11.48;;;8.60;99.90;;;;;;4989233;28;20034;-71
2023/12/11 06:59:46;;;;;;;64.43;11.65;;;8.60;99.90;;;;;;4991723;28;20026;-69
2023/12/11 07:02:12;;;;;;;72.38;11.82;;;8.60;99.90;;;;;;4990870;28;20109;-69
2023/12/11 07:04:40;;;;;;;68.10;12.38;;;8.60;99.90;;;;;;4990125;28;20078;-70
2023/12/11 07:07:06;;;;;;;59.53;11.23;;;8.60;99.90;;;;;;4991330;28;20046;-68
2023/12/11 07:09:32;;;;;;;55.78;10.63;;;8.60;99.90;;;;;;4990951;28;21075;-69
2023/12/11 07:11:58;;;;;;;68.47;11.57;;;8.70;99.90;;;;;;4992451;28;20035;-69
2023/12/11 07:14:24;;;;;;;59.45;10.90;;;8.60;99.90;;;;;;5006967;28;20027;-68
2023/12/11 07:16:50;;;;;;;64.45;10.50;;;8.70;99.90;;;;;;4989907;28;20033;-70
2023/12/11 07:19:16;;;;;;;63.58;10.98;;;8.70;99.90;;;;;;4990807;28;20065;-67
2023/12/11 07:21:45;;;;;;;66.15;10.38;;;8.70;99.90;;;;;;4990347;28;20022;-68
2023/12/11 07:24:11;;;;;;;68.30;10.20;;;8.70;99.90;;;;;;4991355;28;20042;-72
2023/12/11 07:26:36;;;;;;;74.28;11.48;;;8.70;99.90;;;;;;4991310;28;20042;-71
2023/12/11 07:29:04;;;;;;;65.55;10.43;;;8.70;99.90;;;;;;4992060;28;20031;-71
2023/12/11 07:31:29;;;;;;;53.20;10.32;;;8.70;99.90;;;;;;4990308;28;20054;-69
2023/12/11 07:33:55;;;;;;;52.40;10.38;;;8.70;99.90;;;;;;4990254;28;20027;-69
2023/12/11 07:36:21;;;;;;;57.70;10.25;;;8.70;99.90;;;;;;4989308;28;20090;-71
2023/12/11 07:38:47;;;;;;;60.00;9.40;;;8.70;99.90;;;;;;4991846;28;20023;-70
2023/12/11 07:41:22;;;;;;;64.40;10.60;;;8.70;99.90;;;;;;4992055;28;20050;-71
2023/12/11 07:43:48;;;;;;;65.75;10.20;;;8.70;99.90;;;;;;4992069;28;20015;-70
2023/12/11 07:46:21;;;;;;;54.42;8.73;;;8.70;99.90;;;;;;4992068;28;20027;-69
2023/12/11 07:48:47;;;;;;;61.13;10.20;;;8.70;99.90;;;;;;4986699;28;20042;-71
2023/12/11 07:51:25;;;;;;;53.10;9.60;;;8.70;99.90;;;;;;4986673;28;20039;-69
2023/12/11 07:53:54;;;;;;;57.55;8.93;;;8.70;99.90;;;;;;4990064;28;20078;-70
2023/12/11 07:56:23;;;;;;;54.22;8.93;;;8.70;99.90;;;;;;4989226;28;20029;-71
2023/12/11 07:58:53;;;;;;;65.55;10.27;;;8.70;99.90;;;;;;4997708;28;20041;-69
2023/12/11 08:01:19;;;;;;;48.00;8.68;;;8.70;99.90;;;;;;4989002;28;20047;-68
2023/12/11 08:03:45;;;;;;;68.22;9.02;;;8.70;99.90;;;;;;4987397;28;21254;-69
2023/12/11 08:06:11;;;;;;;64.25;8.25;;;8.70;99.90;;;;;;4982313;28;20030;-68
2023/12/11 08:08:43;;;;;;;49.80;8.45;;;8.70;99.90;;;;;;4987673;28;20031;-71
2023/12/11 08:11:24;;;;;;;49.33;9.15;;;8.80;99.90;;;;;;4990167;28;20472;-70
2023/12/11 08:13:50;;;;;;;50.08;7.78;;;8.80;99.90;;;;;;4992044;28;20038;-71
2023/12/11 08:16:16;;;;;;;52.28;8.65;;;8.80;99.90;;;;;;4988607;28;20527;-72
2023/12/11 08:18:47;;;;;;;60.97;9.27;;;8.80;99.90;;;;;;4992717;28;20034;-69
2023/12/11 08:21:13;;;;;;;49.33;8.18;;;8.80;99.90;;;;;;4990053;28;20026;-71
2023/12/11 08:23:50;;;;;;;55.25;8.70;;;8.80;99.90;;;;;;4990941;28;20015;-71
2023/12/11 08:26:20;;;;;;;55.33;7.57;;;8.80;99.90;;;;;;5003118;28;20470;-70
2023/12/11 08:28:47;;;;;;;37.35;7.00;;;8.90;99.90;;;;;;4991483;28;20054;-71
2023/12/11 08:31:13;;;;;;;50.97;8.07;;;8.80;99.90;;;;;;5005778;28;20377;-69
2023/12/11 08:33:39;;;;;;;37.30;7.45;;;8.80;99.90;;;;;;4991721;28;20032;-71
2023/12/11 08:36:05;;;;;;;36.83;7.68;;;8.80;99.90;;;;;;4990225;28;20109;-69
2023/12/11 08:38:31;;;;;;;42.83;7.30;;;8.80;99.90;;;;;;4993199;28;20054;-70
2023/12/11 08:40:57;;;;;;;39.83;6.72;;;8.80;99.90;;;;;;4995383;28;20019;-69
2023/12/11 08:43:23;;;;;;;34.58;6.35;;;8.90;99.90;;;;;;4992375;28;20027;-70
2023/12/11 08:45:49;;;;;;;40.63;6.65;;;8.90;99.90;;;;;;4994920;28;20455;-71
2023/12/11 08:48:14;;;;;;;39.03;5.50;;;8.90;99.90;;;;;;4993438;28;20033;-70
2023/12/11 08:50:40;;;;;;;36.92;6.25;;;8.90;99.90;;;;;;4993574;28;20058;-69
2023/12/11 08:53:05;;;;;;;22.92;5.22;;;8.90;99.90;;;;;;4992409;28;20123;-70
2023/12/11 08:55:31;;;;;;;33.78;5.88;;;8.90;99.90;;;;;;4993387;28;20042;-69
2023/12/11 08:57:57;;;;;;;36.42;7.72;;;8.90;99.90;;;;;;4993619;28;20093;-71
2023/12/11 09:00:23;;;;;;;33.67;5.90;;;8.90;99.90;;;;;;4994603;28;20036;-70
2023/12/11 09:02:49;;;;;;;33.35;5.68;;;8.90;99.90;;;;;;4994106;28;20027;-69
2023/12/11 09:05:15;;;;;;;39.40;6.25;;;8.90;99.90;;;;;;4993848;28;20034;-70
2023/12/11 09:07:41;;;;;;;32.90;5.40;;;8.90;99.90;;;;;;4988605;28;20031;-73
2023/12/11 09:10:10;;;;;;;42.63;8.35;;;8.90;99.90;;;;;;4994533;28;20125;-71
2023/12/11 09:12:36;;;;;;;37.72;7.03;;;8.90;99.90;;;;;;4991406;28;20030;-70
2023/12/11 09:15:03;;;;;;;32.75;7.15;;;8.90;99.90;;;;;;4992655;28;20136;-71
2023/12/11 09:17:28;;;;;;;32.67;6.60;;;8.90;99.90;;;;;;4986662;28;20033;-71
2023/12/11 09:19:54;;;;;;;29.70;5.95;;;8.90;99.90;;;;;;4985041;28;20031;-70
2023/12/11 09:22:19;;;;;;;24.98;6.70;;;8.90;99.90;;;;;;4991422;28;20038;-70
2023/12/11 09:24:45;;;;;;;31.60;6.32;;;8.90;99.90;;;;;;4994583;28;20026;-71
2023/12/11 09:27:11;;;;;;;25.70;4.32;;;8.80;99.90;;;;;;4987604;28;20061;-73
2023/12/11 09:29:37;;;;;;;30.75;5.00;;;8.80;99.90;;;;;;4991719;28;20476;-69
2023/12/11 09:32:03;;;;;;;27.05;4.75;;;8.80;99.90;;;;;;4992761;28;20038;-70
2023/12/11 09:34:28;;;;;;;32.47;5.60;;;8.80;99.90;;;;;;4991564;28;20034;-69
2023/12/11 09:36:54;;;;;;;31.42;5.40;;;8.80;99.90;;;;;;4990838;28;20034;-71
2023/12/11 09:39:20;;;;;;;31.77;6.30;;;8.80;99.90;;;;;;4988697;28;20034;-72
2023/12/11 09:41:46;;;;;;;34.80;6.25;;;8.80;99.90;;;;;;4992840;28;20483;-70
2023/12/11 09:44:12;;;;;;;30.08;5.55;;;8.90;99.90;;;;;;4991206;28;20038;-69
2023/12/11 09:46:44;;;;;;;35.60;6.60;;;8.90;99.90;;;;;;4990528;28;20061;-71
2023/12/11 09:49:10;;;;;;;40.08;6.30;;;8.90;99.90;;;;;;4988797;28;20038;-71
2023/12/11 09:51:36;;;;;;;36.20;6.90;;;9.00;99.90;;;;;;4990365;28;20058;-72
2023/12/11 09:54:03;;;;;;;41.70;6.38;;;9.00;99.90;;;;;;4993090;28;20030;-69
2023/12/11 09:56:31;;;;;;;37.33;7.30;;;9.00;99.90;;;;;;4990634;28;20039;-70
2023/12/11 09:58:57;;;;;;;34.42;6.65;;;9.10;99.90;;;;;;4990791;28;20098;-70
2023/12/11 10:01:23;;;;;;;37.03;7.10;;;9.10;99.90;;;;;;4990638;28;20086;-72
2023/12/11 10:03:49;;;;;;;40.92;7.10;;;9.10;99.90;;;;;;4990420;28;20038;-71
2023/12/11 10:06:14;;;;;;;28.33;6.75;;;9.20;99.90;;;;;;4992072;28;20035;-72
2023/12/11 10:08:42;;;;;;;36.20;8.35;;;9.20;99.90;;;;;;4993578;28;20033;-71
2023/12/11 10:11:13;;;;;;;48.35;8.57;;;9.20;99.90;;;;;;4993386;28;20073;-70
2023/12/11 10:13:39;;;;;;;31.00;7.10;;;9.30;99.90;;;;;;4993369;28;20035;-70
2023/12/11 10:16:25;;;;;;;44.55;7.43;;;9.20;99.90;;;;;;4990076;28;20022;-70
2023/12/11 10:18:50;;;;;;;37.92;7.22;;;9.20;99.90;;;;;;4993224;28;20033;-69
2023/12/11 10:21:16;;;;;;;44.70;7.28;;;9.20;99.90;;;;;;4993645;28;20018;-71
2023/12/11 10:23:42;;;;;;;32.28;5.70;;;9.20;99.90;;;;;;4984525;28;20034;-69
2023/12/11 10:26:08;;;;;;;42.65;7.85;;;9.20;99.90;;;;;;4992782;28;20691;-72
2023/12/11 10:28:34;;;;;;;30.42;5.90;;;9.20;99.90;;;;;;4992710;28;20029;-69
2023/12/11 10:31:02;;;;;;;31.20;6.60;;;9.20;99.90;;;;;;4991319;28;20023;-71
2023/12/11 10:33:31;;;;;;;40.63;6.43;;;9.20;99.90;;;;;;4989101;28;20486;-69
2023/12/11 10:36:11;;;;;;;31.98;6.38;;;9.20;99.90;;;;;;4992397;28;20111;-67
2023/12/11 10:38:38;;;;;;;35.90;6.63;;;9.20;99.90;;;;;;4991577;28;20034;-72
2023/12/11 10:41:04;;;;;;;28.98;5.85;;;9.20;99.90;;;;;;4988003;28;20039;-70
2023/12/11 10:43:39;;;;;;;29.17;5.95;;;9.10;99.90;;;;;;4986883;28;20147;-72
2023/12/11 10:46:05;;;;;;;34.10;5.82;;;9.20;99.90;;;;;;4987079;28;20023;-68
2023/12/11 10:48:31;;;;;;;32.92;6.40;;;9.20;99.90;;;;;;4992227;28;20618;-70
2023/12/11 10:50:57;;;;;;;41.00;6.97;;;9.20;99.90;;;;;;4993042;28;20660;-70
2023/12/11 10:53:23;;;;;;;32.20;6.40;;;9.20;99.90;;;;;;4988066;28;20031;-70
2023/12/11 10:55:49;;;;;;;27.58;6.50;;;9.20;99.90;;;;;;4989488;28;20384;-69
2023/12/11 10:58:15;;;;;;;32.95;6.40;;;9.20;99.90;;;;;;4985694;28;20026;-70
2023/12/11 11:00:41;;;;;;;28.95;6.28;;;9.20;99.90;;;;;;4992289;28;20026;-68
2023/12/11 11:03:08;;;;;;;37.67;6.43;;;9.10;99.90;;;;;;4989028;28;20061;-69
2023/12/11 11:05:35;;;;;;;24.63;6.05;;;9.20;99.90;;;;;;4988269;28;20034;-69
2023/12/11 11:08:28;;;;;;;30.60;6.95;;;9.20;99.90;;;;;;4987410;28;20034;-70
2023/12/11 11:11:22;;;;;;;32.28;6.68;;;9.20;99.90;;;;;;4988706;28;20047;-69
2023/12/11 11:14:13;;;;;;;26.87;6.20;;;9.20;99.90;;;;;;4986573;28;20030;-72
2023/12/11 11:16:55;;;;;;;31.73;7.03;;;9.20;99.90;;;;;;4984415;28;20297;-69
2023/12/11 11:19:21;;;;;;;35.10;7.45;;;9.20;99.90;;;;;;4989104;28;20031;-72
2023/12/11 11:22:04;;;;;;;23.67;6.78;;;9.20;99.90;;;;;;4989802;28;20046;-69
2023/12/11 11:24:38;;;;;;;32.65;7.13;;;9.20;99.90;;;;;;4988240;28;21405;-70
2023/12/11 11:27:24;;;;;;;34.90;7.97;;;9.20;99.90;;;;;;5002764;28;20061;-70
2023/12/11 11:29:51;;;;;;;30.55;8.73;;;9.20;99.90;;;;;;4990819;28;20046;-71
2023/12/11 11:32:18;;;;;;;33.17;9.07;;;9.20;99.90;;;;;;4992249;28;20031;-70
2023/12/11 11:34:44;;;;;;;27.13;8.13;;;9.20;99.90;;;;;;4989480;28;20034;-71
2023/12/11 11:37:14;;;;;;;23.90;7.15;;;9.20;99.90;;;;;;4990442;28;20035;-72
2023/12/11 11:40:00;;;;;;;23.75;7.45;;;9.20;99.90;;;;;;4990479;28;20022;-71
2023/12/11 11:42:28;;;;;;;26.48;7.93;;;9.20;99.90;;;;;;4990452;28;20427;-70
2023/12/11 11:44:58;;;;;;;32.10;8.38;;;9.20;99.90;;;;;;4991699;28;20034;-70
2023/12/11 11:47:25;;;;;;;30.70;8.10;;;9.20;99.90;;;;;;4990873;28;20041;-69
2023/12/11 11:49:53;;;;;;;24.67;7.88;;;9.20;99.90;;;;;;4987852;28;20050;-69
2023/12/11 11:52:27;;;;;;;33.85;8.05;;;9.20;99.90;;;;;;4983191;28;20065;-69
2023/12/11 11:55:11;;;;;;;23.52;8.27;;;9.20;99.90;;;;;;4989993;28;20030;-69
2023/12/11 11:57:37;;;;;;;38.50;8.73;;;9.20;99.90;;;;;;4990613;28;20027;-69
2023/12/11 12:00:05;;;;;;;27.80;7.78;;;9.20;99.90;;;;;;4989922;28;20297;-69
2023/12/11 12:02:31;;;;;;;26.23;8.45;;;9.20;99.90;;;;;;4985429;28;20039;-69
2023/12/11 12:05:06;;;;;;;23.90;7.88;;;9.30;99.90;;;;;;4982294;28;20064;-68
2023/12/11 12:07:31;;;;;;;22.00;8.63;;;9.30;99.90;;;;;;4984802;28;20031;-69
2023/12/11 12:09:59;;;;;;;24.70;7.82;;;9.30;99.90;;;;;;4987102;28;20045;-68
2023/12/11 12:12:26;;;;;;;26.45;7.72;;;9.30;99.90;;;;;;4988775;28;20387;-68
2023/12/11 12:15:02;;;;;;;24.67;8.13;;;9.30;99.90;;;;;;4993909;28;20062;-69
2023/12/11 12:17:28;;;;;;;22.40;7.85;;;9.30;99.90;;;;;;4993456;28;20034;-70
2023/12/11 12:19:54;;;;;;;23.55;7.20;;;9.30;99.90;;;;;;4994464;28;20030;-70
2023/12/11 12:22:19;;;;;;;18.67;6.80;;;9.30;99.90;;;;;;4990893;28;20049;-68
2023/12/11 12:24:48;;;;;;;23.67;7.63;;;9.30;99.90;;;;;;4991947;28;20118;-69
2023/12/11 12:27:20;;;;;;;21.05;6.88;;;9.20;99.90;;;;;;4992616;28;20146;-69
2023/12/11 12:29:46;;;;;;;24.70;7.60;;;9.20;99.90;;;;;;4992567;28;20035;-68
2023/12/11 12:32:13;;;;;;;25.48;8.10;;;9.20;99.90;;;;;;4990382;28;20031;-68
2023/12/11 12:34:44;;;;;;;29.58;7.80;;;9.20;99.90;;;;;;4991914;28;20030;-70
2023/12/11 12:37:10;;;;;;;29.90;8.00;;;9.20;99.90;;;;;;4987263;28;20061;-68
2023/12/11 12:39:36;;;;;;;24.65;7.47;;;9.20;99.90;;;;;;4989787;28;20053;-68
2023/12/11 12:42:02;;;;;;;32.55;8.05;;;9.20;99.90;;;;;;4994063;28;20037;-68